Time;durP1;ratioP1;P1;durP2;ratioP2;P2;SDS_P1;SDS_P2;PMS_P1;PMS_P2;Temp;Humidity;BMP_temperature;BMP_pressure;BME280_temperature;BME280_humidity;BME280_pressure;Samples;Min_cycle;Max_cycle;Signal;HPM_P1;HPM_P2
2021/11/21 00:00:37;;;;;;;11.70;3.70;;;;;;;17.03;57.06;101024.03;5074467;28;20032;-66
2021/11/21 00:03:05;;;;;;;10.18;3.03;;;;;;;17.02;56.95;101027.59;5072877;28;20076;-67
2021/11/21 00:05:33;;;;;;;7.13;3.10;;;;;;;17.01;56.86;101032.06;5073971;28;20036;-66
2021/11/21 00:08:00;;;;;;;7.38;3.72;;;;;;;16.99;56.83;101025.88;5089644;28;20040;-66
2021/11/21 00:10:33;;;;;;;9.00;3.85;;;;;;;16.97;56.83;101024.09;5074227;28;20044;-66
2021/11/21 00:13:03;;;;;;;8.60;3.65;;;;;;;16.96;56.73;101035.66;5073571;28;20040;-66
2021/11/21 00:15:51;;;;;;;12.52;3.38;;;;;;;16.89;56.72;101031.25;5069743;28;20064;-66
2021/11/21 00:18:19;;;;;;;10.10;3.75;;;;;;;16.87;56.58;101030.38;5074044;28;20041;-67
2021/11/21 00:20:47;;;;;;;8.70;3.42;;;;;;;16.83;56.38;101026.84;5074203;28;20044;-66
2021/11/21 00:23:15;;;;;;;7.70;3.20;;;;;;;16.82;56.24;101029.50;5073762;28;20044;-66
2021/11/21 00:25:42;;;;;;;10.10;3.53;;;;;;;16.80;56.00;101036.66;5073576;28;20047;-66
2021/11/21 00:28:12;;;;;;;11.70;4.22;;;;;;;16.78;56.01;101035.75;5089523;28;20048;-66
2021/11/21 00:30:55;;;;;;;8.98;3.65;;;;;;;16.77;55.79;101033.97;5072400;28;20047;-66
2021/11/21 00:33:23;;;;;;;8.70;3.80;;;;;;;16.76;55.53;101032.22;5071931;28;20464;-66
2021/11/21 00:35:51;;;;;;;10.68;3.85;;;;;;;16.75;55.44;101028.66;5089184;28;20036;-67
2021/11/21 00:38:19;;;;;;;7.35;3.60;;;;;;;16.75;55.39;101031.31;5073474;28;20041;-66
2021/11/21 00:40:46;;;;;;;10.35;4.78;;;;;;;16.73;55.39;101023.34;5082450;28;20480;-66
2021/11/21 00:43:15;;;;;;;8.93;3.78;;;;;;;16.74;55.39;101034.88;5073679;28;20041;-66
2021/11/21 00:45:43;;;;;;;6.82;2.95;;;;;;;16.73;55.39;101028.69;5089830;28;20059;-66
2021/11/21 00:48:11;;;;;;;9.80;3.80;;;;;;;16.74;55.44;101027.75;5073559;28;20032;-69
2021/11/21 00:50:39;;;;;;;7.93;3.47;;;;;;;16.76;55.35;101032.22;5093290;28;20607;-69
2021/11/21 00:53:06;;;;;;;8.90;3.65;;;;;;;16.77;55.44;101029.53;5072461;28;20047;-69
2021/11/21 00:55:38;;;;;;;9.77;4.25;;;;;;;16.80;55.36;101028.66;5088975;28;20068;-69
2021/11/21 00:58:09;;;;;;;11.77;4.00;;;;;;;16.83;55.42;101036.63;5073101;28;20033;-69
2021/11/21 01:00:40;;;;;;;8.63;4.05;;;;;;;16.86;55.43;101036.63;5072827;28;20064;-68
2021/11/21 01:03:09;;;;;;;6.57;3.90;;;;;;;16.87;55.48;101033.06;5071546;28;20108;-69
2021/11/21 01:05:36;;;;;;;9.18;4.07;;;;;;;16.86;55.38;101024.16;5077801;28;20094;-69
2021/11/21 01:08:05;;;;;;;11.45;4.10;;;;;;;16.89;55.35;101025.91;5073137;28;20119;-69
2021/11/21 01:10:33;;;;;;;8.57;3.67;;;;;;;16.87;55.33;101030.38;5071370;28;20056;-69
2021/11/21 01:13:00;;;;;;;9.32;3.80;;;;;;;16.85;55.47;101025.06;5088489;28;20037;-69
2021/11/21 01:15:28;;;;;;;10.70;4.10;;;;;;;16.82;55.58;101026.84;5071364;28;20055;-69
2021/11/21 01:17:58;;;;;;;9.30;3.47;;;;;;;16.81;55.60;101035.72;5088435;28;20037;-69
2021/11/21 01:20:29;;;;;;;9.00;3.83;;;;;;;16.81;55.37;101030.41;5072872;28;20036;-69
2021/11/21 01:22:57;;;;;;;11.30;3.85;;;;;;;16.80;55.33;101023.31;5090010;28;20533;-69
2021/11/21 01:25:26;;;;;;;10.45;4.60;;;;;;;16.81;55.22;101025.06;5072601;28;20479;-69
2021/11/21 01:27:55;;;;;;;10.15;3.55;;;;;;;16.78;55.41;101023.31;5072079;28;20047;-69
2021/11/21 01:30:26;;;;;;;11.60;4.15;;;;;;;16.76;55.53;101019.75;5086546;28;20427;-69
2021/11/21 01:32:54;;;;;;;7.70;3.63;;;;;;;16.76;55.76;101021.53;5072176;28;20155;-69
2021/11/21 01:35:24;;;;;;;8.85;3.47;;;;;;;16.73;55.90;101018.03;5072424;28;20480;-69
2021/11/21 01:37:52;;;;;;;7.45;3.42;;;;;;;16.73;56.02;101020.69;5072593;28;20033;-69
2021/11/21 01:40:21;;;;;;;9.80;3.22;;;;;;;16.72;56.02;101021.56;5071176;28;20100;-69
2021/11/21 01:43:09;;;;;;;8.05;3.65;;;;;;;16.73;56.00;101025.13;5071733;28;20048;-69
2021/11/21 01:45:37;;;;;;;9.75;3.88;;;;;;;16.71;56.11;101014.47;5072372;28;20047;-69
2021/11/21 01:48:05;;;;;;;10.55;3.70;;;;;;;16.68;56.07;101017.13;5072014;28;20048;-69
2021/11/21 01:50:38;;;;;;;10.85;4.20;;;;;;;16.67;56.03;101018.03;5072052;28;20056;-68
2021/11/21 01:53:06;;;;;;;9.63;4.03;;;;;;;16.65;56.14;101011.84;5072106;28;20082;-68
2021/11/21 01:55:35;;;;;;;9.25;3.78;;;;;;;16.63;56.15;101016.28;5087666;28;20040;-68
2021/11/21 01:58:03;;;;;;;8.27;3.90;;;;;;;16.62;56.17;101019.84;5054335;28;20407;-69
2021/11/21 02:00:33;;;;;;;11.90;4.15;;;;;;;16.66;56.23;101023.38;5070587;28;20037;-68
2021/11/21 02:03:01;;;;;;;9.20;3.80;;;;;;;16.65;56.17;101029.59;5087530;28;20028;-69
2021/11/21 02:05:29;;;;;;;10.50;4.20;;;;;;;16.69;56.43;101031.34;5070922;28;20056;-69
2021/11/21 02:08:18;;;;;;;13.85;3.95;;;;;;;16.69;56.47;101026.91;5069189;28;20159;-69
2021/11/21 02:10:46;;;;;;;10.00;3.95;;;;;;;16.65;56.51;101027.84;5072070;28;20056;-69
2021/11/21 02:13:14;;;;;;;13.05;4.22;;;;;;;16.65;56.58;101025.16;5072030;28;20094;-69
2021/11/21 02:15:45;;;;;;;8.93;3.45;;;;;;;16.67;56.60;101027.84;5070563;28;20040;-68
2021/11/21 02:18:14;;;;;;;9.52;3.42;;;;;;;16.66;56.67;101024.28;5070400;28;20494;-68
2021/11/21 02:20:49;;;;;;;10.05;3.47;;;;;;;16.67;56.78;101028.69;5087514;28;20051;-68
2021/11/21 02:23:17;;;;;;;10.18;3.80;;;;;;;16.69;56.85;101032.25;5075995;28;20048;-69
2021/11/21 02:25:45;;;;;;;8.45;4.50;;;;;;;16.73;56.70;101027.81;5071468;28;20098;-68
2021/11/21 02:28:13;;;;;;;11.73;4.47;;;;;;;16.73;56.57;101026.03;5071864;28;20039;-66
2021/11/21 02:30:41;;;;;;;11.00;3.88;;;;;;;16.77;56.68;101021.53;5071686;28;20048;-66
2021/11/21 02:33:12;;;;;;;9.38;4.00;;;;;;;16.78;56.66;101030.44;5071616;28;20048;-66
2021/11/21 02:35:41;;;;;;;9.63;3.28;;;;;;;16.77;56.72;101025.97;5071390;28;20049;-66
2021/11/21 02:38:13;;;;;;;11.02;3.40;;;;;;;16.74;56.82;101027.75;5071586;28;20048;-66
2021/11/21 02:40:42;;;;;;;8.57;4.18;;;;;;;16.75;56.71;101031.31;5071748;28;20047;-67
2021/11/21 02:43:09;;;;;;;11.80;4.15;;;;;;;16.73;56.67;101019.81;5071454;28;20045;-66
2021/11/21 02:45:37;;;;;;;10.85;3.35;;;;;;;16.71;56.82;101025.13;5086907;28;20060;-66
2021/11/21 02:48:05;;;;;;;11.23;4.00;;;;;;;16.73;56.88;101033.13;5071459;28;20431;-66
2021/11/21 02:50:33;;;;;;;9.18;3.60;;;;;;;16.73;57.02;101028.69;5087019;28;20044;-66
2021/11/21 02:53:00;;;;;;;7.28;3.38;;;;;;;16.73;56.93;101020.69;5076165;28;20090;-66
2021/11/21 02:55:33;;;;;;;8.75;3.72;;;;;;;16.76;57.26;101022.44;5071104;28;20124;-67
2021/11/21 02:58:03;;;;;;;10.15;3.47;;;;;;;16.77;57.35;101032.22;5071348;28;20033;-67
2021/11/21 03:00:33;;;;;;;8.15;3.35;;;;;;;16.76;57.42;101025.09;5071228;28;20495;-66
2021/11/21 03:03:01;;;;;;;8.00;3.63;;;;;;;16.77;57.49;101025.97;5070899;28;20043;-66
2021/11/21 03:05:29;;;;;;;12.18;3.72;;;;;;;16.76;57.62;101030.44;5071210;28;20045;-66
2021/11/21 03:07:57;;;;;;;6.50;3.45;;;;;;;16.76;57.62;101027.75;5071119;28;20033;-66
2021/11/21 03:10:24;;;;;;;11.07;3.38;;;;;;;16.80;57.77;101032.22;5086560;28;20049;-66
2021/11/21 03:12:57;;;;;;;9.77;3.72;;;;;;;16.83;57.85;101031.28;5069608;28;20045;-66
2021/11/21 03:15:26;;;;;;;12.07;3.08;;;;;;;16.82;57.79;101030.38;5071770;28;20173;-67
2021/11/21 03:17:54;;;;;;;8.60;3.42;;;;;;;16.84;57.76;101035.72;5092151;28;20040;-67
2021/11/21 03:20:36;;;;;;;8.70;3.83;;;;;;;16.83;57.71;101031.28;5073199;28;20386;-66
2021/11/21 03:23:06;;;;;;;10.52;3.55;;;;;;;16.85;57.62;101024.16;5090589;28;20036;-66
2021/11/21 03:25:34;;;;;;;12.27;3.17;;;;;;;16.83;57.59;101028.63;5074865;28;20033;-66
2021/11/21 03:28:04;;;;;;;8.00;2.97;;;;;;;16.82;57.73;101045.50;5074965;28;20051;-66
2021/11/21 03:30:32;;;;;;;12.50;4.00;;;;;;;16.80;57.79;101039.31;5073530;28;20051;-66
2021/11/21 03:33:00;;;;;;;7.82;3.10;;;;;;;16.79;57.75;101040.19;5074598;28;20098;-66
2021/11/21 03:35:29;;;;;;;9.73;2.78;;;;;;;16.77;57.75;101039.31;5072971;28;20041;-66
2021/11/21 03:37:56;;;;;;;9.15;3.60;;;;;;;16.74;57.71;101041.09;5074375;28;20041;-66
2021/11/21 03:40:24;;;;;;;14.55;3.67;;;;;;;16.71;57.68;101035.78;5090130;28;20151;-66
2021/11/21 03:42:52;;;;;;;9.75;3.45;;;;;;;16.71;57.62;101040.25;5074534;28;20524;-66
2021/11/21 03:45:21;;;;;;;10.07;3.50;;;;;;;16.71;57.56;101043.78;5073407;28;20052;-67
2021/11/21 03:47:49;;;;;;;11.40;3.58;;;;;;;16.71;57.43;101046.47;5090520;28;20496;-67
2021/11/21 03:50:19;;;;;;;7.35;3.05;;;;;;;16.71;57.33;101046.47;5074693;28;20093;-66
2021/11/21 03:52:48;;;;;;;8.20;3.35;;;;;;;16.69;57.31;101048.25;5077288;28;20090;-66
2021/11/21 03:55:18;;;;;;;12.82;3.45;;;;;;;16.69;57.21;101042.91;5074513;28;20436;-66
2021/11/21 03:57:46;;;;;;;8.57;2.97;;;;;;;16.66;57.13;101053.59;5094054;28;20097;-66
2021/11/21 04:00:17;;;;;;;9.07;3.50;;;;;;;16.66;57.17;101056.28;5074353;28;20040;-66
2021/11/21 04:02:47;;;;;;;8.35;3.25;;;;;;;16.64;57.25;101055.38;5074415;28;20047;-66
2021/11/21 04:05:16;;;;;;;8.73;3.03;;;;;;;16.66;57.38;101061.59;5074111;28;20044;-66
2021/11/21 04:07:44;;;;;;;8.30;3.20;;;;;;;16.67;57.41;101058.00;5074212;28;20044;-66
2021/11/21 04:10:13;;;;;;;9.15;3.10;;;;;;;16.67;57.36;101063.34;5074023;28;20041;-67
2021/11/21 04:12:41;;;;;;;7.95;2.85;;;;;;;16.68;57.37;101067.78;5074279;28;20044;-66
2021/11/21 04:15:11;;;;;;;7.30;3.28;;;;;;;16.67;57.49;101074.00;5078683;28;20053;-66
2021/11/21 04:17:39;;;;;;;9.85;3.00;;;;;;;16.66;57.46;101080.25;5073697;28;20408;-66
2021/11/21 04:20:10;;;;;;;10.20;3.63;;;;;;;16.68;57.44;101086.44;5089566;28;20098;-66
2021/11/21 04:22:38;;;;;;;10.45;3.33;;;;;;;16.70;57.49;101081.13;5072877;28;20037;-66
2021/11/21 04:25:07;;;;;;;14.10;4.22;;;;;;;16.72;57.50;101084.69;5076000;28;20055;-66
2021/11/21 04:27:35;;;;;;;8.32;3.13;;;;;;;16.73;57.65;101095.34;5072821;28;20123;-66
2021/11/21 04:30:05;;;;;;;10.85;3.50;;;;;;;16.75;57.71;101087.31;5073800;28;20036;-66
2021/11/21 04:32:49;;;;;;;10.30;3.40;;;;;;;16.76;57.71;101083.75;5086902;28;20047;-66
2021/11/21 04:35:21;;;;;;;8.13;3.22;;;;;;;16.77;57.94;101085.53;5073982;28;20411;-66
2021/11/21 04:37:51;;;;;;;9.95;3.50;;;;;;;16.78;57.90;101095.31;5089258;28;20041;-66
2021/11/21 04:40:20;;;;;;;9.00;2.95;;;;;;;16.79;57.93;101093.53;5073550;28;20119;-66
2021/11/21 04:42:48;;;;;;;7.38;3.25;;;;;;;16.78;58.09;101095.31;5089154;28;20123;-66
2021/11/21 04:45:16;;;;;;;7.40;2.97;;;;;;;16.78;58.03;101097.97;5077612;28;20586;-66
2021/11/21 04:47:45;;;;;;;9.38;3.20;;;;;;;16.78;58.12;101095.31;5089063;28;20049;-66
2021/11/21 04:50:14;;;;;;;10.00;3.17;;;;;;;16.81;58.20;101099.72;5073582;28;20359;-66
2021/11/21 04:52:44;;;;;;;7.35;3.15;;;;;;;16.80;58.20;101100.66;5072136;28;20163;-66
2021/11/21 04:55:12;;;;;;;11.10;3.72;;;;;;;16.80;58.04;101090.88;5088999;28;20040;-66
2021/11/21 04:57:41;;;;;;;8.48;3.47;;;;;;;16.80;58.05;101101.53;5073217;28;20495;-66
2021/11/21 05:00:15;;;;;;;8.48;3.65;;;;;;;16.84;57.96;101107.72;5073380;28;20051;-66
2021/11/21 05:03:03;;;;;;;8.55;3.00;;;;;;;16.83;58.00;101104.16;5072627;28;20041;-66
2021/11/21 05:05:31;;;;;;;7.25;3.22;;;;;;;16.85;57.97;101099.72;5088564;28;20131;-65
2021/11/21 05:08:00;;;;;;;8.48;3.65;;;;;;;16.86;57.87;101100.63;5072920;28;20048;-66
2021/11/21 05:10:28;;;;;;;9.60;3.78;;;;;;;16.85;57.82;101107.72;5072904;28;20036;-66
2021/11/21 05:12:55;;;;;;;9.48;4.22;;;;;;;16.87;57.64;101107.72;5072792;28;20044;-67
2021/11/21 05:15:24;;;;;;;9.07;3.78;;;;;;;16.86;57.68;101113.94;5088694;28;20116;-66
2021/11/21 05:17:52;;;;;;;13.15;3.80;;;;;;;16.86;57.72;101114.84;5088389;28;20040;-66
2021/11/21 05:20:21;;;;;;;12.45;3.72;;;;;;;16.85;57.64;101117.50;5071229;28;20044;-67
2021/11/21 05:22:49;;;;;;;8.43;2.92;;;;;;;16.84;57.65;101118.38;5072893;28;20045;-67
2021/11/21 05:25:18;;;;;;;6.90;2.60;;;;;;;16.84;57.42;101121.06;5072513;28;20056;-67
2021/11/21 05:27:48;;;;;;;7.43;3.30;;;;;;;16.82;57.29;101122.84;5088830;28;20040;-67
2021/11/21 05:30:17;;;;;;;7.03;3.03;;;;;;;16.85;57.12;101117.50;5072925;28;20049;-67
2021/11/21 05:32:45;;;;;;;6.78;3.05;;;;;;;16.88;57.10;101114.81;5088644;28;20120;-67
2021/11/21 05:35:14;;;;;;;8.00;3.15;;;;;;;16.91;57.08;101122.81;5072364;28;20047;-67
2021/11/21 05:37:42;;;;;;;6.05;3.10;;;;;;;16.94;56.93;101121.00;5072361;28;20387;-67
2021/11/21 05:40:12;;;;;;;6.40;3.30;;;;;;;17.01;56.86;101124.53;5072293;28;20049;-67
2021/11/21 05:42:41;;;;;;;7.03;3.42;;;;;;;17.03;56.84;101128.97;5076691;28;20139;-67
2021/11/21 05:45:10;;;;;;;12.48;3.08;;;;;;;17.05;56.76;101129.84;5088054;28;23976;-67
2021/11/21 05:47:37;;;;;;;7.75;3.33;;;;;;;17.07;56.68;101135.16;5070813;28;20127;-67
2021/11/21 05:50:12;;;;;;;8.40;3.05;;;;;;;17.13;56.55;101137.81;5072169;28;20063;-67
2021/11/21 05:52:40;;;;;;;7.78;3.08;;;;;;;17.17;56.60;101128.91;5070948;28;20378;-67
2021/11/21 05:55:08;;;;;;;7.90;3.75;;;;;;;17.22;56.59;101140.44;5087497;28;20033;-67
2021/11/21 05:57:35;;;;;;;7.72;2.75;;;;;;;17.29;56.49;101149.28;5072131;28;20480;-67
2021/11/21 06:00:08;;;;;;;7.90;3.28;;;;;;;17.32;56.27;101144.84;5070783;28;20032;-67
2021/11/21 06:02:59;;;;;;;10.00;3.13;;;;;;;17.32;56.13;101147.50;5071571;28;20052;-67
2021/11/21 06:05:27;;;;;;;8.85;3.50;;;;;;;17.33;55.96;101153.69;5071907;28;20040;-68
2021/11/21 06:07:55;;;;;;;10.20;2.92;;;;;;;17.36;55.97;101153.69;5074406;28;20090;-68
2021/11/21 06:10:23;;;;;;;7.97;3.28;;;;;;;17.38;55.71;101165.25;5087414;28;20064;-67
2021/11/21 06:12:50;;;;;;;6.25;2.85;;;;;;;17.40;55.54;101164.34;5074314;28;20058;-67
2021/11/21 06:15:20;;;;;;;8.48;2.65;;;;;;;17.44;55.39;101160.75;5087516;28;20123;-67
2021/11/21 06:17:47;;;;;;;9.82;3.47;;;;;;;17.51;55.51;101167.84;5087344;28;20106;-67
2021/11/21 06:20:15;;;;;;;9.82;3.22;;;;;;;17.61;55.29;101162.47;5071943;28;20044;-67
2021/11/21 06:22:43;;;;;;;5.95;2.78;;;;;;;17.71;55.11;101165.06;5088255;28;20460;-67
2021/11/21 06:25:12;;;;;;;6.93;2.90;;;;;;;17.76;54.93;101170.38;5071027;28;20056;-68
2021/11/21 06:27:41;;;;;;;8.30;3.30;;;;;;;17.78;54.79;101166.81;5071372;28;20059;-69
2021/11/21 06:30:10;;;;;;;8.32;2.65;;;;;;;17.88;54.59;101168.50;5071276;28;20115;-67
2021/11/21 06:32:40;;;;;;;6.35;2.70;;;;;;;18.04;54.52;101165.72;5070187;28;20049;-67
2021/11/21 06:35:08;;;;;;;9.07;2.75;;;;;;;18.13;54.28;101161.16;5087113;28;20032;-67
2021/11/21 06:37:37;;;;;;;8.57;2.83;;;;;;;18.17;54.28;101167.38;5071569;28;20518;-67
2021/11/21 06:40:25;;;;;;;6.35;2.88;;;;;;;18.16;54.19;101169.16;5070768;28;20370;-68
2021/11/21 06:42:53;;;;;;;9.10;2.90;;;;;;;18.16;54.00;101173.63;5071448;28;20571;-68
2021/11/21 06:45:20;;;;;;;6.43;2.40;;;;;;;18.14;53.97;101172.72;5071418;28;20036;-67
2021/11/21 06:47:50;;;;;;;6.45;2.80;;;;;;;18.14;53.91;101176.28;5087415;28;20045;-67
2021/11/21 06:50:27;;;;;;;10.95;2.50;;;;;;;18.15;53.88;101175.41;5069397;28;20037;-67
2021/11/21 06:52:56;;;;;;;6.68;3.17;;;;;;;18.14;53.54;101178.06;5070066;28;20120;-67
2021/11/21 06:55:23;;;;;;;8.10;2.95;;;;;;;18.13;53.59;101173.63;5071305;28;20442;-68
2021/11/21 06:57:51;;;;;;;8.23;2.72;;;;;;;18.17;53.55;101183.41;5069680;28;20040;-68
2021/11/21 07:00:19;;;;;;;10.80;3.03;;;;;;;18.22;53.44;101184.25;5087383;28;20037;-67
2021/11/21 07:02:47;;;;;;;8.18;3.33;;;;;;;18.24;53.33;101182.47;5075282;28;20121;-68
2021/11/21 07:05:17;;;;;;;8.18;2.97;;;;;;;18.25;53.15;101186.88;5086791;28;20091;-68
2021/11/21 07:07:45;;;;;;;5.18;2.28;;;;;;;18.20;53.14;101189.59;5087044;28;20050;-67
2021/11/21 07:10:13;;;;;;;19.85;2.95;;;;;;;18.28;53.42;101187.75;5086794;28;20152;-67
2021/11/21 07:12:41;;;;;;;8.50;3.00;;;;;;;18.37;53.40;101184.13;5071263;28;20506;-67
2021/11/21 07:15:09;;;;;;;9.43;2.95;;;;;;;18.45;53.39;101192.03;5070162;28;20086;-68
2021/11/21 07:17:37;;;;;;;6.72;2.70;;;;;;;18.74;53.34;101191.78;5070087;28;20171;-67
2021/11/21 07:20:06;;;;;;;7.80;2.42;;;;;;;19.08;52.98;101190.50;5071048;28;20090;-67
2021/11/21 07:22:37;;;;;;;6.85;2.60;;;;;;;19.19;52.38;101191.22;5071133;28;20507;-67
2021/11/21 07:25:06;;;;;;;6.28;2.53;;;;;;;19.38;52.35;101187.41;5089677;28;20078;-68
2021/11/21 07:27:36;;;;;;;6.22;2.67;;;;;;;19.66;52.30;101201.31;5070698;28;20049;-68
2021/11/21 07:30:04;;;;;;;4.35;2.40;;;;;;;19.96;51.77;101194.59;5070860;28;20098;-68
2021/11/21 07:32:32;;;;;;;9.30;3.28;;;;;;;20.24;51.97;101192.34;5070813;28;20114;-67
2021/11/21 07:34:59;;;;;;;10.35;2.50;;;;;;;20.48;51.27;101191.94;5070914;28;20472;-69
2021/11/21 07:37:27;;;;;;;5.65;2.50;;;;;;;20.70;50.88;101197.81;5086240;28;20040;-68
2021/11/21 07:39:57;;;;;;;9.75;3.00;;;;;;;20.94;50.28;101199.09;5070973;28;20041;-68
2021/11/21 07:42:24;;;;;;;7.82;2.80;;;;;;;21.13;49.76;101203.22;5070905;28;20040;-68
2021/11/21 07:44:53;;;;;;;6.88;3.20;;;;;;;21.32;49.38;101201.06;5072529;28;20071;-68
2021/11/21 07:47:21;;;;;;;6.55;2.97;;;;;;;21.43;48.63;101199.00;5086359;28;20067;-69
2021/11/21 07:49:48;;;;;;;7.53;2.60;;;;;;;21.50;48.07;101197.97;5075864;28;20082;-68
2021/11/21 07:52:16;;;;;;;7.22;3.40;;;;;;;21.56;47.84;101213.06;5070676;28;20053;-68
2021/11/21 07:54:45;;;;;;;7.80;2.85;;;;;;;21.68;47.60;101223.53;5070635;28;20045;-68
2021/11/21 07:57:15;;;;;;;6.85;2.38;;;;;;;21.80;46.93;101217.88;5070354;28;20371;-68
2021/11/21 07:59:43;;;;;;;5.75;2.50;;;;;;;21.66;46.87;101214.63;5070414;28;20040;-68
2021/11/21 08:02:11;;;;;;;5.32;2.47;;;;;;;21.69;46.58;101214.56;5070447;28;20049;-68
2021/11/21 08:04:38;;;;;;;8.75;2.53;;;;;;;21.77;46.66;101220.63;5074439;28;20438;-68
2021/11/21 08:07:08;;;;;;;6.63;2.42;;;;;;;21.90;46.42;101214.06;5073928;28;20358;-68
2021/11/21 08:09:36;;;;;;;6.68;2.70;;;;;;;21.83;45.36;101210.63;5074184;28;20033;-68
2021/11/21 08:12:03;;;;;;;5.95;2.80;;;;;;;21.67;45.11;101214.56;5074070;28;20045;-68
2021/11/21 08:14:33;;;;;;;7.13;2.83;;;;;;;21.42;45.09;101219.63;5076403;28;20036;-68
2021/11/21 08:17:06;;;;;;;7.43;2.88;;;;;;;21.31;45.12;101208.22;5071583;28;20051;-69
2021/11/21 08:19:34;;;;;;;5.97;2.55;;;;;;;21.40;45.31;101205.31;5073565;28;20556;-68
2021/11/21 08:22:02;;;;;;;6.32;2.80;;;;;;;21.47;45.41;101198.91;5082580;27;20107;-69
2021/11/21 08:24:30;;;;;;;6.20;2.50;;;;;;;21.70;45.39;101205.56;5073420;28;20124;-69
2021/11/21 08:26:57;;;;;;;5.72;2.47;;;;;;;21.73;45.38;101201.00;5089645;28;20496;-69
2021/11/21 08:29:25;;;;;;;10.25;3.33;;;;;;;21.62;45.03;101191.41;5073525;28;20041;-69
2021/11/21 08:31:56;;;;;;;9.00;2.95;;;;;;;21.51;45.24;101198.84;5073131;28;20064;-69
2021/11/21 08:34:24;;;;;;;7.20;3.30;;;;;;;21.30;45.22;101206.47;5089124;28;20056;-68
2021/11/21 08:36:52;;;;;;;8.52;3.20;;;;;;;21.17;45.55;101210.31;5089016;28;20082;-68
2021/11/21 08:39:21;;;;;;;6.38;2.88;;;;;;;20.99;45.70;101207.97;5089610;28;20060;-68
2021/11/21 08:41:48;;;;;;;7.88;3.10;;;;;;;20.79;45.72;101212.84;5074690;28;20043;-68
2021/11/21 08:44:16;;;;;;;6.65;3.58;;;;;;;20.61;45.93;101209.59;5073177;28;20048;-68
2021/11/21 08:46:44;;;;;;;7.13;3.00;;;;;;;20.54;45.91;101209.75;5073151;28;20545;-68
2021/11/21 08:49:13;;;;;;;6.95;3.00;;;;;;;20.58;45.96;101196.25;5073353;28;20049;-69
2021/11/21 08:51:43;;;;;;;6.05;2.80;;;;;;;20.66;45.67;101205.03;5075481;28;20052;-68
2021/11/21 08:54:10;;;;;;;8.32;2.88;;;;;;;20.78;45.80;101194.97;5087688;28;20491;-69
2021/11/21 08:56:38;;;;;;;9.90;3.03;;;;;;;20.79;45.47;101203.00;5073983;28;20098;-69
2021/11/21 08:59:06;;;;;;;6.88;3.70;;;;;;;20.72;45.64;101201.34;5071626;28;20094;-69
2021/11/21 09:01:35;;;;;;;14.23;3.42;;;;;;;20.76;46.00;101203.06;5088524;28;20040;-69
2021/11/21 09:04:03;;;;;;;7.93;3.40;;;;;;;20.79;45.87;101196.75;5073020;28;20044;-69
2021/11/21 09:06:33;;;;;;;8.07;3.30;;;;;;;20.79;45.75;101188.69;5075063;28;20033;-69
2021/11/21 09:09:06;;;;;;;6.93;3.22;;;;;;;20.74;46.20;101187.91;5072609;28;20476;-68
2021/11/21 09:11:35;;;;;;;7.72;2.92;;;;;;;20.63;46.12;101197.03;5072964;28;20492;-68
2021/11/21 09:14:03;;;;;;;8.52;3.67;;;;;;;20.52;45.96;101191.00;5072534;28;20044;-69
2021/11/21 09:16:32;;;;;;;9.20;3.63;;;;;;;20.43;46.03;101199.19;5072807;28;20044;-69
2021/11/21 09:18:59;;;;;;;7.75;3.45;;;;;;;20.38;46.31;101201.09;5072948;28;20082;-68
2021/11/21 09:21:27;;;;;;;8.70;3.50;;;;;;;20.36;46.28;101204.69;5088488;28;20041;-69
2021/11/21 09:24:17;;;;;;;8.80;3.88;;;;;;;20.34;46.30;101206.53;5068943;28;20047;-68
2021/11/21 09:26:44;;;;;;;7.18;3.20;;;;;;;20.37;46.51;101198.41;5087913;28;20540;-68
2021/11/21 09:29:12;;;;;;;7.78;3.20;;;;;;;20.42;46.61;101209.94;5088232;28;20094;-68
2021/11/21 09:31:40;;;;;;;10.63;4.00;;;;;;;20.43;46.25;101206.34;5072664;28;20040;-69
2021/11/21 09:34:08;;;;;;;6.85;3.40;;;;;;;20.47;46.71;101208.09;5072404;28;20037;-69
2021/11/21 09:36:36;;;;;;;9.68;3.25;;;;;;;20.76;47.09;101199.47;5072286;28;20151;-68
2021/11/21 09:39:04;;;;;;;7.55;3.22;;;;;;;21.03;46.57;101201.63;5087943;28;20086;-69
2021/11/21 09:41:33;;;;;;;8.55;3.08;;;;;;;21.05;46.04;101197.13;5071257;28;20047;-69
2021/11/21 09:44:01;;;;;;;7.35;2.80;;;;;;;20.95;45.98;101195.53;5072313;28;20045;-69
2021/11/21 09:46:29;;;;;;;10.13;3.58;;;;;;;21.01;46.17;101192.72;5087565;28;20508;-68
2021/11/21 09:48:57;;;;;;;8.10;3.17;;;;;;;21.25;46.10;101184.19;5087854;28;20411;-69
2021/11/21 09:51:25;;;;;;;7.10;3.05;;;;;;;21.65;46.31;101181.50;5087708;28;20060;-69
2021/11/21 09:54:15;;;;;;;7.30;3.38;;;;;;;21.96;45.81;101180.78;5076577;28;20372;-69
2021/11/21 09:56:45;;;;;;;8.15;3.20;;;;;;;21.94;45.23;101174.53;5072148;28;20041;-69
2021/11/21 09:59:12;;;;;;;8.52;3.40;;;;;;;21.79;45.12;101178.50;5072020;28;20094;-69
2021/11/21 10:01:42;;;;;;;7.80;3.15;;;;;;;21.65;45.26;101183.31;5087199;28;20094;-69
2021/11/21 10:04:12;;;;;;;12.55;3.08;;;;;;;21.80;45.66;101166.78;5072002;28;20036;-69
2021/11/21 10:06:45;;;;;;;9.32;3.13;;;;;;;22.07;45.63;101174.22;5087305;28;20131;-69
2021/11/21 10:09:18;;;;;;;6.00;2.50;;;;;;;22.35;45.51;101170.81;5071998;28;20055;-70
2021/11/21 10:12:01;;;;;;;6.47;2.67;;;;;;;22.50;44.94;101165.03;5071911;28;20040;-70
2021/11/21 10:14:29;;;;;;;5.53;2.58;;;;;;;22.64;44.82;101161.03;5071765;28;20055;-69
2021/11/21 10:16:57;;;;;;;8.57;3.28;;;;;;;22.84;44.88;101170.41;5071849;28;20036;-69
2021/11/21 10:20:13;;;;;;;8.00;2.92;;;;;;;23.03;44.02;101164.47;5075670;28;20490;-69
2021/11/21 10:22:59;;;;;;;5.82;3.10;;;;;;;23.04;44.05;101171.59;5071510;28;20060;-69
2021/11/21 10:25:39;;;;;;;7.32;2.83;;;;;;;23.12;44.06;101171.38;5069082;28;20131;-69
2021/11/21 10:28:11;;;;;;;5.75;2.63;;;;;;;23.10;44.14;101173.25;5087358;28;20033;-69
2021/11/21 10:31:03;;;;;;;5.13;2.65;;;;;;;22.98;43.76;101161.00;5071404;28;20037;-69
2021/11/21 10:33:33;;;;;;;11.88;2.47;;;;;;;22.74;43.45;101155.44;5071796;28;20068;-69
2021/11/21 10:36:23;;;;;;;6.22;2.90;;;;;;;22.40;43.26;101153.63;5079855;28;20047;-70
2021/11/21 10:38:53;;;;;;;7.60;3.03;;;;;;;22.12;43.39;101156.16;5071455;28;20036;-69
2021/11/21 10:41:24;;;;;;;6.38;2.78;;;;;;;22.00;43.76;101161.84;5071413;28;20029;-70
2021/11/21 10:44:00;;;;;;;8.18;2.85;;;;;;;22.11;44.14;101159.78;5071593;28;20127;-70
2021/11/21 10:46:43;;;;;;;7.30;2.67;;;;;;;22.20;43.95;101154.16;5070055;28;20413;-69
2021/11/21 10:49:33;;;;;;;5.88;2.72;;;;;;;22.40;43.99;101150.94;5086521;28;20076;-69
2021/11/21 10:52:11;;;;;;;7.85;2.83;;;;;;;22.53;43.95;101159.56;5065936;28;20044;-69
2021/11/21 10:54:45;;;;;;;5.68;2.42;;;;;;;22.64;43.87;101152.09;5073815;28;20044;-69
2021/11/21 10:57:15;;;;;;;7.63;2.90;;;;;;;22.73;43.74;101156.34;5071215;28;20060;-69
2021/11/21 10:59:51;;;;;;;5.43;2.80;;;;;;;22.73;43.27;101151.84;5071295;28;20133;-69
2021/11/21 11:02:22;;;;;;;5.57;2.60;;;;;;;22.62;43.18;101148.56;5071531;28;20044;-69
2021/11/21 11:05:06;;;;;;;8.82;2.63;;;;;;;22.66;43.30;101147.53;5075973;28;20056;-69
2021/11/21 11:07:37;;;;;;;6.45;2.67;;;;;;;22.73;43.33;101145.59;5086472;28;20447;-69
2021/11/21 11:10:09;;;;;;;4.82;2.10;;;;;;;22.73;43.25;101142.88;5086698;28;20040;-69
2021/11/21 11:12:37;;;;;;;5.90;2.60;;;;;;;22.77;43.16;101145.47;5071036;28;20036;-69
2021/11/21 11:15:09;;;;;;;4.90;2.35;;;;;;;22.86;43.13;101150.59;5070999;28;20032;-69
2021/11/21 11:17:38;;;;;;;6.78;2.03;;;;;;;22.96;43.17;101138.63;5070912;28;20044;-69
2021/11/21 11:20:09;;;;;;;6.55;2.50;;;;;;;23.02;42.85;101149.22;5086518;28;20033;-69
2021/11/21 11:22:39;;;;;;;5.93;2.25;;;;;;;23.09;42.48;101144.53;5071048;28;20119;-69
2021/11/21 11:25:10;;;;;;;6.22;3.05;;;;;;;23.13;42.18;101137.22;5070645;28;20098;-68
2021/11/21 11:27:55;;;;;;;5.97;2.65;;;;;;;23.13;42.54;101134.53;5086436;28;20123;-68
2021/11/21 11:30:31;;;;;;;10.70;3.05;;;;;;;22.93;42.61;101144.09;5070774;28;20093;-68
2021/11/21 11:33:09;;;;;;;6.05;3.25;;;;;;;22.83;42.45;101145.31;5086203;28;20496;-68
2021/11/21 11:35:39;;;;;;;5.75;2.50;;;;;;;22.71;42.41;101140.19;5071014;28;20504;-67
2021/11/21 11:38:11;;;;;;;5.00;2.35;;;;;;;22.51;42.74;101134.53;5074094;28;20480;-67